createdAt,value
2017-02-10T00:00:10.900Z,1018.21
2017-02-10T00:01:15.027Z,1018.14
2017-02-10T00:02:20.145Z,1018.15
2017-02-10T00:03:25.269Z,1018.14
2017-02-10T00:04:30.400Z,1018.09
2017-02-10T00:05:36.526Z,1018.09
2017-02-10T00:06:41.624Z,1018.08
2017-02-10T00:07:46.727Z,1018.09
2017-02-10T00:08:51.816Z,1018.03
2017-02-10T00:09:57.938Z,1017.98
2017-02-10T00:11:02.084Z,1018.04
2017-02-10T00:12:07.250Z,1018.08
2017-02-10T00:13:12.384Z,1018.03
2017-02-10T00:14:18.455Z,1017.95
2017-02-10T00:15:23.589Z,1018.03
2017-02-10T00:16:29.705Z,1018.01
2017-02-10T00:17:35.776Z,1017.97
2017-02-10T00:18:39.907Z,1017.97
2017-02-10T00:19:46.015Z,1017.98
2017-02-10T00:20:50.142Z,1018.06
2017-02-10T00:21:56.236Z,1017.9
2017-02-10T00:23:01.365Z,1017.88
2017-02-10T00:24:07.449Z,1017.91
2017-02-10T00:25:11.616Z,1017.88
2017-02-10T00:26:17.708Z,1017.85
2017-02-10T00:27:23.812Z,1017.9
2017-02-10T00:28:28.910Z,1017.87
2017-02-10T00:29:34.042Z,1017.85
2017-02-10T00:30:39.144Z,1017.9
2017-02-10T00:31:44.271Z,1017.96
2017-02-10T00:32:49.390Z,1017.85
2017-02-10T00:33:55.472Z,1017.84
2017-02-10T00:35:00.559Z,1017.83
2017-02-10T00:36:06.650Z,1017.83
2017-02-10T00:37:09.830Z,1017.88
2017-02-10T00:38:15.922Z,1017.82
2017-02-10T00:39:22.006Z,1017.83
2017-02-10T00:40:27.121Z,1017.81
2017-02-10T00:41:33.215Z,1017.8
2017-02-10T00:42:39.309Z,1017.77
2017-02-10T00:43:45.399Z,1017.76
2017-02-10T00:44:50.516Z,1017.78
2017-02-10T00:45:56.606Z,1017.78
2017-02-10T00:47:00.755Z,1017.72
2017-02-10T00:48:06.839Z,1017.78
2017-02-10T00:49:11.979Z,1017.72
2017-02-10T00:50:18.068Z,1017.71
2017-02-10T00:51:24.138Z,1017.65
2017-02-10T00:52:29.318Z,1017.67
2017-02-10T00:53:33.448Z,1017.64
2017-02-10T00:54:38.563Z,1017.64
2017-02-10T00:55:43.656Z,1017.63
2017-02-10T00:56:49.765Z,1017.64
2017-02-10T00:57:53.915Z,1017.63
2017-02-10T00:59:00.005Z,1017.66
2017-02-10T01:00:04.157Z,1017.64
2017-02-10T01:01:10.252Z,1017.7
2017-02-10T01:02:16.431Z,1017.62
2017-02-10T01:03:21.531Z,1017.58
2017-02-10T01:04:27.609Z,1017.64
2017-02-10T01:05:32.768Z,1017.6
2017-02-10T01:06:38.868Z,1017.62
2017-02-10T01:07:44.959Z,1017.62
2017-02-10T01:08:51.046Z,1017.63
2017-02-10T01:09:56.181Z,1017.64
2017-02-10T01:11:01.305Z,1017.62
2017-02-10T01:12:06.425Z,1017.65
2017-02-10T01:13:12.531Z,1017.64
2017-02-10T01:14:18.618Z,1017.67
2017-02-10T01:15:23.713Z,1017.63
2017-02-10T01:16:29.793Z,1017.57
2017-02-10T01:17:35.881Z,1017.67
2017-02-10T01:18:41.990Z,1017.55
2017-02-10T01:19:48.102Z,1017.55
2017-02-10T01:20:54.187Z,1017.57
2017-02-10T01:21:59.316Z,1017.59
2017-02-10T01:23:04.411Z,1017.59
2017-02-10T01:24:07.629Z,1017.61
2017-02-10T01:25:13.721Z,1017.55
2017-02-10T01:26:18.812Z,1017.59
2017-02-10T01:27:23.934Z,1017.54
2017-02-10T01:28:29.132Z,1017.57
2017-02-10T01:29:35.216Z,1017.56
2017-02-10T01:30:39.371Z,1017.57
2017-02-10T01:31:43.531Z,1017.55
2017-02-10T01:32:47.698Z,1017.56
2017-02-10T01:33:52.822Z,1017.51
2017-02-10T01:34:58.906Z,1017.47
2017-02-10T01:36:05.012Z,1017.5
2017-02-10T01:37:10.160Z,1017.49
2017-02-10T01:38:16.246Z,1017.43
2017-02-10T01:39:21.370Z,1017.47
2017-02-10T01:40:25.482Z,1017.44
2017-02-10T01:41:30.606Z,1017.45
2017-02-10T01:42:36.702Z,1017.46
2017-02-10T01:43:41.824Z,1017.39
2017-02-10T01:44:46.919Z,1017.38
2017-02-10T01:45:53.007Z,1017.37
2017-02-10T01:46:56.160Z,1017.32
2017-02-10T01:48:01.251Z,1017.34
2017-02-10T01:49:07.424Z,1017.3
2017-02-10T01:50:10.608Z,1017.34
2017-02-10T01:51:14.753Z,1017.34
2017-02-10T01:52:19.875Z,1017.33
2017-02-10T01:53:23.995Z,1017.29
2017-02-10T01:54:28.248Z,1017.31
2017-02-10T01:55:34.314Z,1017.31
2017-02-10T01:56:39.444Z,1017.29
2017-02-10T01:57:45.523Z,1017.2
2017-02-10T01:58:47.747Z,1017.21
2017-02-10T01:59:52.863Z,1017.24
2017-02-10T02:00:57.967Z,1017.25
2017-02-10T02:02:04.063Z,1017.21
2017-02-10T02:03:08.190Z,1017.2
2017-02-10T02:04:13.316Z,1017.25
2017-02-10T02:05:19.404Z,1017.23
2017-02-10T02:06:24.585Z,1017.2
2017-02-10T02:07:30.688Z,1017.27
2017-02-10T02:08:35.780Z,1017.27
2017-02-10T02:09:40.897Z,1017.25
2017-02-10T02:10:46.015Z,1017.31
2017-02-10T02:11:52.112Z,1017.24
2017-02-10T02:12:57.232Z,1017.22
2017-02-10T02:14:02.351Z,1017.26
2017-02-10T02:15:07.495Z,1017.24
2017-02-10T02:16:13.578Z,1017.26
2017-02-10T02:17:18.698Z,1017.19
2017-02-10T02:18:24.789Z,1017.23
2017-02-10T02:19:30.879Z,1017.09
2017-02-10T02:20:37.002Z,1017.22
2017-02-10T02:21:42.123Z,1017.16
2017-02-10T02:22:48.217Z,1017.18
2017-02-10T02:23:52.344Z,1017.15
2017-02-10T02:24:58.498Z,1017.19
2017-02-10T02:26:04.575Z,1017.16
2017-02-10T02:27:10.662Z,1017.21
2017-02-10T02:28:16.753Z,1017.14
2017-02-10T02:29:21.873Z,1017.14
2017-02-10T02:30:26.990Z,1017.1
2017-02-10T02:31:31.146Z,1017.13
2017-02-10T02:32:37.239Z,1017.16
2017-02-10T02:33:42.435Z,1017.12
2017-02-10T02:34:47.546Z,1017.08
2017-02-10T02:35:52.662Z,1017.09
2017-02-10T02:36:58.752Z,1017.06
2017-02-10T02:38:04.853Z,1017.08
2017-02-10T02:39:10.938Z,1017.04
2017-02-10T02:40:17.020Z,1017.04
2017-02-10T02:41:22.138Z,1017.03
2017-02-10T02:42:28.229Z,1017.02
2017-02-10T02:43:33.349Z,1017.05
2017-02-10T02:44:39.439Z,1017
2017-02-10T02:45:43.587Z,1016.98
2017-02-10T02:46:49.695Z,1017
2017-02-10T02:47:55.783Z,1016.95
2017-02-10T02:48:59.884Z,1017
2017-02-10T02:50:05.037Z,1016.99
2017-02-10T02:51:10.238Z,1016.98
2017-02-10T02:52:15.359Z,1016.98
2017-02-10T02:53:20.492Z,1017.01
2017-02-10T02:54:26.581Z,1017.02
2017-02-10T02:55:32.679Z,1016.97
2017-02-10T02:56:38.780Z,1016.98
2017-02-10T02:57:43.886Z,1016.93
2017-02-10T02:58:50.026Z,1016.94
2017-02-10T02:59:55.137Z,1016.94
2017-02-10T03:01:00.254Z,1016.91
2017-02-10T03:02:05.348Z,1016.84
2017-02-10T03:03:11.443Z,1016.85
2017-02-10T03:04:16.573Z,1016.81
2017-02-10T03:05:22.661Z,1016.87
2017-02-10T03:06:27.783Z,1016.76
2017-02-10T03:07:31.908Z,1016.73
2017-02-10T03:08:36.034Z,1016.73
2017-02-10T03:09:40.176Z,1016.71
2017-02-10T03:10:45.298Z,1016.67
2017-02-10T03:11:50.426Z,1016.7
2017-02-10T03:12:56.628Z,1016.68
2017-02-10T03:14:01.729Z,1016.68
2017-02-10T03:15:06.850Z,1016.66
2017-02-10T03:16:12.943Z,1016.62
2017-02-10T03:17:19.112Z,1016.61
2017-02-10T03:18:24.218Z,1016.63
2017-02-10T03:19:29.338Z,1016.53
2017-02-10T03:20:34.448Z,1016.55
2017-02-10T03:21:39.550Z,1016.55
2017-02-10T03:22:44.669Z,1016.54
2017-02-10T03:23:50.751Z,1016.48
2017-02-10T03:24:56.840Z,1016.5
2017-02-10T03:26:01.971Z,1016.49
2017-02-10T03:27:08.064Z,1016.53
2017-02-10T03:28:14.154Z,1016.46
2017-02-10T03:29:20.297Z,1016.54
2017-02-10T03:30:25.424Z,1016.45
2017-02-10T03:31:31.577Z,1016.46
2017-02-10T03:32:36.697Z,1016.53
2017-02-10T03:33:41.819Z,1016.47
2017-02-10T03:34:46.942Z,1016.44
2017-02-10T03:35:53.027Z,1016.43
2017-02-10T03:36:57.179Z,1016.45
2017-02-10T03:38:02.296Z,1016.5
2017-02-10T03:39:07.421Z,1016.48
2017-02-10T03:40:11.579Z,1016.55
2017-02-10T03:41:14.726Z,1016.58
2017-02-10T03:42:19.854Z,1016.49
2017-02-10T03:43:24.978Z,1016.51
2017-02-10T03:44:31.062Z,1016.51
2017-02-10T03:45:37.155Z,1016.46
2017-02-10T03:46:41.282Z,1016.53
2017-02-10T03:47:44.479Z,1016.49
2017-02-10T03:48:50.570Z,1016.51
2017-02-10T03:49:55.688Z,1016.52
2017-02-10T03:51:01.831Z,1016.53
2017-02-10T03:52:06.944Z,1016.54
2017-02-10T03:53:10.104Z,1016.53
2017-02-10T03:54:16.198Z,1016.52
2017-02-10T03:55:20.328Z,1016.54
2017-02-10T03:56:26.419Z,1016.55
2017-02-10T03:57:31.541Z,1016.6
2017-02-10T03:58:37.626Z,1016.53
2017-02-10T03:59:42.741Z,1016.56
2017-02-10T04:00:47.904Z,1016.62
2017-02-10T04:01:53.031Z,1016.5
2017-02-10T04:02:59.122Z,1016.51
2017-02-10T04:04:03.308Z,1016.49
2017-02-10T04:05:08.435Z,1016.47
2017-02-10T04:06:14.530Z,1016.48
2017-02-10T04:07:20.615Z,1016.52
2017-02-10T04:08:24.748Z,1016.48
2017-02-10T04:09:29.878Z,1016.52
2017-02-10T04:10:34.033Z,1016.45
2017-02-10T04:11:39.153Z,1016.43
2017-02-10T04:12:43.378Z,1016.49
2017-02-10T04:13:48.523Z,1016.5
2017-02-10T04:14:52.691Z,1016.44
2017-02-10T04:15:58.805Z,1016.42
2017-02-10T04:17:02.930Z,1016.48
2017-02-10T04:18:08.085Z,1016.42
2017-02-10T04:19:14.150Z,1016.38
2017-02-10T04:20:20.232Z,1016.34
2017-02-10T04:21:26.327Z,1016.33
2017-02-10T04:22:32.425Z,1016.34
2017-02-10T04:23:36.575Z,1016.31
2017-02-10T04:24:41.701Z,1016.31
2017-02-10T04:25:46.817Z,1016.28
2017-02-10T04:26:50.941Z,1016.42
2017-02-10T04:27:56.062Z,1016.34
2017-02-10T04:29:02.152Z,1016.33
2017-02-10T04:30:08.259Z,1016.28
2017-02-10T04:31:13.360Z,1016.3
2017-02-10T04:32:19.552Z,1016.28
2017-02-10T04:33:25.631Z,1016.31
2017-02-10T04:34:30.760Z,1016.34
2017-02-10T04:35:35.904Z,1016.31
2017-02-10T04:36:40.979Z,1016.43
2017-02-10T04:37:46.103Z,1016.42
2017-02-10T04:38:52.183Z,1016.29
2017-02-10T04:39:58.289Z,1016.37
2017-02-10T04:41:02.423Z,1016.32
2017-02-10T04:42:07.537Z,1016.32
2017-02-10T04:43:12.657Z,1016.34
2017-02-10T04:44:18.758Z,1016.3
2017-02-10T04:45:23.880Z,1016.32
2017-02-10T04:46:26.061Z,1016.35
2017-02-10T04:47:32.215Z,1016.31
2017-02-10T04:48:37.382Z,1016.27
2017-02-10T04:49:43.439Z,1016.37
2017-02-10T04:50:49.523Z,1016.3
2017-02-10T04:51:55.656Z,1016.32
2017-02-10T04:53:00.784Z,1016.32
2017-02-10T04:54:06.871Z,1016.29
2017-02-10T04:55:11.960Z,1016.29
2017-02-10T04:56:15.124Z,1016.29
2017-02-10T04:57:20.228Z,1016.34
2017-02-10T04:58:26.362Z,1016.29
2017-02-10T04:59:31.465Z,1016.32
2017-02-10T05:00:36.578Z,1016.31
2017-02-10T05:01:42.699Z,1016.36
2017-02-10T05:02:48.781Z,1016.26
2017-02-10T05:03:51.944Z,1016.32
2017-02-10T05:04:58.135Z,1016.31
2017-02-10T05:06:04.227Z,1016.32
2017-02-10T05:07:09.325Z,1016.38
2017-02-10T05:08:14.441Z,1016.34
2017-02-10T05:09:20.530Z,1016.33
2017-02-10T05:10:26.620Z,1016.32
2017-02-10T05:11:32.709Z,1016.27
2017-02-10T05:12:36.867Z,1016.29
2017-02-10T05:13:41.039Z,1016.26
2017-02-10T05:14:47.126Z,1016.24
2017-02-10T05:15:53.217Z,1016.19
2017-02-10T05:16:59.311Z,1016.2
2017-02-10T05:18:05.406Z,1016.26
2017-02-10T05:19:10.523Z,1016.28
2017-02-10T05:20:16.614Z,1016.28
2017-02-10T05:21:22.704Z,1016.26
2017-02-10T05:22:27.828Z,1016.26
2017-02-10T05:23:33.919Z,1016.26
2017-02-10T05:24:40.002Z,1016.31
2017-02-10T05:25:45.120Z,1016.26
2017-02-10T05:26:51.208Z,1016.27
2017-02-10T05:27:56.340Z,1016.29
2017-02-10T05:29:00.504Z,1016.28
2017-02-10T05:30:04.665Z,1016.27
2017-02-10T05:31:10.770Z,1016.26
2017-02-10T05:32:15.916Z,1016.31
2017-02-10T05:33:21.998Z,1016.25
2017-02-10T05:34:26.125Z,1016.17
2017-02-10T05:35:31.384Z,1016.22
2017-02-10T05:36:36.479Z,1016.22
2017-02-10T05:37:40.640Z,1016.22
2017-02-10T05:38:44.791Z,1016.17
2017-02-10T05:39:50.879Z,1016.25
2017-02-10T05:40:56.964Z,1016.19
2017-02-10T05:42:02.074Z,1016.2
2017-02-10T05:43:08.159Z,1016.23
2017-02-10T05:44:14.251Z,1016.27
2017-02-10T05:45:18.364Z,1016.28
2017-02-10T05:46:23.483Z,1016.3
2017-02-10T05:47:29.583Z,1016.3
2017-02-10T05:48:34.675Z,1016.37
2017-02-10T05:49:39.807Z,1016.32
2017-02-10T05:50:45.929Z,1016.26
2017-02-10T05:51:50.061Z,1016.25
2017-02-10T05:52:55.175Z,1016.24
2017-02-10T05:54:01.265Z,1016.22
2017-02-10T05:55:06.388Z,1016.28
2017-02-10T05:56:11.508Z,1016.22
2017-02-10T05:57:17.615Z,1016.23
2017-02-10T05:58:23.707Z,1016.18
2017-02-10T05:59:29.846Z,1016.22
2017-02-10T06:00:35.877Z,1016.26
2017-02-10T06:01:39.042Z,1016.22
2017-02-10T06:02:42.223Z,1016.26
2017-02-10T06:03:46.359Z,1016.3
2017-02-10T06:04:51.470Z,1016.3
2017-02-10T06:05:57.606Z,1016.25
2017-02-10T06:07:01.751Z,1016.28
2017-02-10T06:08:06.840Z,1016.27
2017-02-10T06:09:10.968Z,1016.24
2017-02-10T06:10:15.148Z,1016.24
2017-02-10T06:11:20.277Z,1016.21
2017-02-10T06:12:25.438Z,1016.25
2017-02-10T06:13:28.625Z,1016.23
2017-02-10T06:14:30.816Z,1016.2
2017-02-10T06:15:36.911Z,1016.16
2017-02-10T06:16:42.034Z,1016.25
2017-02-10T06:17:48.122Z,1016.19
2017-02-10T06:18:54.273Z,1016.19
2017-02-10T06:19:59.361Z,1016.2
2017-02-10T06:21:05.488Z,1016.17
2017-02-10T06:22:11.577Z,1016.17
2017-02-10T06:23:15.727Z,1016.19
2017-02-10T06:24:20.856Z,1016.23
2017-02-10T06:25:26.949Z,1016.19
2017-02-10T06:26:32.080Z,1016.18
2017-02-10T06:27:38.158Z,1016.21
2017-02-10T06:28:44.249Z,1016.21
2017-02-10T06:29:48.367Z,1016.23
2017-02-10T06:30:53.460Z,1016.25
2017-02-10T06:31:57.631Z,1016.27
2017-02-10T06:33:03.723Z,1016.27
2017-02-10T06:34:08.828Z,1016.32
2017-02-10T06:35:14.912Z,1016.23
2017-02-10T06:36:20.141Z,1016.24
2017-02-10T06:37:26.226Z,1016.22
2017-02-10T06:38:32.320Z,1016.27
2017-02-10T06:39:36.491Z,1016.24
2017-02-10T06:40:42.564Z,1016.25
2017-02-10T06:41:48.665Z,1016.3
2017-02-10T06:42:53.785Z,1016.27
2017-02-10T06:43:59.869Z,1016.23
2017-02-10T06:45:04.990Z,1016.25
2017-02-10T06:46:10.119Z,1016.22
2017-02-10T06:47:16.221Z,1016.23
2017-02-10T06:48:22.310Z,1016.24
2017-02-10T06:49:26.460Z,1016.25
2017-02-10T06:50:32.547Z,1016.23
2017-02-10T06:51:38.630Z,1016.26
2017-02-10T06:52:42.783Z,1016.22
2017-02-10T06:53:47.934Z,1016.25
2017-02-10T06:54:54.028Z,1016.21
2017-02-10T06:55:59.156Z,1016.25
2017-02-10T06:57:05.246Z,1016.24
2017-02-10T06:58:11.334Z,1016.22
2017-02-10T06:59:17.418Z,1016.26
2017-02-10T07:00:22.536Z,1016.25
2017-02-10T07:01:27.664Z,1016.23
2017-02-10T07:02:33.749Z,1016.27
2017-02-10T07:03:39.840Z,1016.33
2017-02-10T07:04:46.002Z,1016.28
2017-02-10T07:05:51.115Z,1016.27
2017-02-10T07:06:56.241Z,1016.31
2017-02-10T07:08:02.337Z,1016.29
2017-02-10T07:09:08.428Z,1016.3
2017-02-10T07:10:14.519Z,1016.33
2017-02-10T07:11:20.601Z,1016.3
2017-02-10T07:12:25.721Z,1016.31
2017-02-10T07:13:30.850Z,1016.3
2017-02-10T07:14:35.980Z,1016.29
2017-02-10T07:15:41.101Z,1016.3
2017-02-10T07:16:47.197Z,1016.31
2017-02-10T07:17:51.394Z,1016.36
2017-02-10T07:18:57.466Z,1016.36
2017-02-10T07:20:03.560Z,1016.3
2017-02-10T07:21:09.646Z,1016.3
2017-02-10T07:22:15.735Z,1016.3
2017-02-10T07:23:21.823Z,1016.31
2017-02-10T07:24:27.916Z,1016.32
2017-02-10T07:25:32.073Z,1016.29
2017-02-10T07:26:36.201Z,1016.3
2017-02-10T07:27:42.292Z,1016.25
2017-02-10T07:28:46.445Z,1016.26
2017-02-10T07:29:52.618Z,1016.24
2017-02-10T07:30:56.770Z,1016.24
2017-02-10T07:32:01.899Z,1016.25
2017-02-10T07:33:07.993Z,1016.27
2017-02-10T07:34:13.117Z,1016.26
2017-02-10T07:35:19.187Z,1016.27
2017-02-10T07:36:24.313Z,1016.25
2017-02-10T07:37:29.433Z,1016.23
2017-02-10T07:38:34.584Z,1016.22
2017-02-10T07:39:39.702Z,1016.23
2017-02-10T07:40:42.862Z,1016.26
2017-02-10T07:41:48.949Z,1016.3
2017-02-10T07:42:54.076Z,1016.3
2017-02-10T07:44:00.159Z,1016.31
2017-02-10T07:45:05.281Z,1016.3
2017-02-10T07:46:10.389Z,1016.25
2017-02-10T07:47:16.538Z,1016.26
2017-02-10T07:48:22.618Z,1016.24
2017-02-10T07:49:27.736Z,1016.21
2017-02-10T07:50:33.824Z,1016.25
2017-02-10T07:51:38.949Z,1016.33
2017-02-10T07:52:45.050Z,1016.26
2017-02-10T07:53:49.182Z,1016.23
2017-02-10T07:54:54.316Z,1016.24
2017-02-10T07:55:59.443Z,1016.2
2017-02-10T07:57:04.553Z,1016.19
2017-02-10T07:58:09.643Z,1016.23
2017-02-10T07:59:14.791Z,1016.19
2017-02-10T08:00:19.922Z,1016.23
2017-02-10T08:01:24.039Z,1016.18
2017-02-10T08:02:30.125Z,1016.26
2017-02-10T08:03:36.287Z,1016.23
2017-02-10T08:04:42.389Z,1016.26
2017-02-10T08:05:46.536Z,1016.24
2017-02-10T08:06:52.625Z,1016.29
2017-02-10T08:07:56.775Z,1016.25
2017-02-10T08:09:02.884Z,1016.24
2017-02-10T08:10:08.970Z,1016.23
2017-02-10T08:11:15.060Z,1016.22
2017-02-10T08:12:19.209Z,1016.21
2017-02-10T08:13:24.329Z,1016.25
2017-02-10T08:14:30.417Z,1016.22
2017-02-10T08:15:36.500Z,1016.21
2017-02-10T08:16:41.640Z,1016.2
2017-02-10T08:17:46.756Z,1016.22
2017-02-10T08:18:51.931Z,1016.28
2017-02-10T08:19:57.059Z,1016.21
2017-02-10T08:21:03.131Z,1016.18
2017-02-10T08:22:08.254Z,1016.19
2017-02-10T08:23:14.363Z,1016.15
2017-02-10T08:24:20.455Z,1016.15
2017-02-10T08:25:26.553Z,1016.22
2017-02-10T08:26:30.708Z,1016.25
2017-02-10T08:27:36.799Z,1016.25
2017-02-10T08:28:41.919Z,1016.24
2017-02-10T08:29:47.041Z,1016.26
2017-02-10T08:30:52.185Z,1016.22
2017-02-10T08:31:57.289Z,1016.18
2017-02-10T08:33:03.376Z,1016.21
2017-02-10T08:34:08.497Z,1016.2
2017-02-10T08:35:13.655Z,1016.26
2017-02-10T08:36:19.774Z,1016.21
2017-02-10T08:37:24.911Z,1016.22
2017-02-10T08:38:31.002Z,1016.2
2017-02-10T08:39:37.092Z,1016.2
2017-02-10T08:40:43.192Z,1016.21
2017-02-10T08:41:49.368Z,1016.16
2017-02-10T08:42:53.425Z,1016.12
2017-02-10T08:43:57.558Z,1016.16
2017-02-10T08:45:03.660Z,1016.12
2017-02-10T08:46:08.745Z,1016.14
2017-02-10T08:47:14.840Z,1016.17
2017-02-10T08:48:19.932Z,1016.13
2017-02-10T08:49:26.116Z,1016.07
2017-02-10T08:50:31.232Z,1016.09
2017-02-10T08:51:37.324Z,1016.08
2017-02-10T08:52:43.410Z,1016.1
2017-02-10T08:53:46.601Z,1016.12
2017-02-10T08:54:52.688Z,1016.1
2017-02-10T08:55:58.794Z,1016.1
2017-02-10T08:57:03.902Z,1016.11
2017-02-10T08:58:09.992Z,1016.1
2017-02-10T08:59:16.087Z,1016.11
2017-02-10T09:00:22.179Z,1016.1
2017-02-10T09:01:27.311Z,1016.1
2017-02-10T09:02:33.413Z,1016.07
2017-02-10T09:03:39.511Z,1016.14
2017-02-10T09:04:44.653Z,1016.14
2017-02-10T09:05:49.770Z,1016.1
2017-02-10T09:06:55.885Z,1016.12
2017-02-10T09:08:01.952Z,1016.13
2017-02-10T09:09:08.045Z,1016.1
2017-02-10T09:10:12.187Z,1016.09
2017-02-10T09:11:14.402Z,1016.08
2017-02-10T09:12:20.490Z,1016.05
2017-02-10T09:13:25.595Z,1016.06
2017-02-10T09:14:31.689Z,1016.08
2017-02-10T09:15:37.776Z,1016.05
2017-02-10T09:16:43.875Z,1016.04
2017-02-10T09:17:49.964Z,1016.05
2017-02-10T09:18:56.080Z,1016.04
2017-02-10T09:20:01.182Z,1016
2017-02-10T09:21:06.307Z,1015.98
2017-02-10T09:22:11.439Z,1015.98
2017-02-10T09:23:16.565Z,1016
2017-02-10T09:24:20.735Z,1016.03
2017-02-10T09:25:24.855Z,1016
2017-02-10T09:26:30.949Z,1016
2017-02-10T09:27:35.107Z,1016.02
2017-02-10T09:28:40.233Z,1016
2017-02-10T09:29:45.366Z,1015.96
2017-02-10T09:30:51.462Z,1016
2017-02-10T09:31:56.593Z,1015.99
2017-02-10T09:33:01.714Z,1016
2017-02-10T09:34:06.830Z,1016.02
2017-02-10T09:35:10.002Z,1016.03
2017-02-10T09:36:16.097Z,1016.05
2017-02-10T09:37:20.245Z,1016.16
2017-02-10T09:38:25.379Z,1016.08
2017-02-10T09:39:30.497Z,1016.03
2017-02-10T09:40:36.587Z,1016.09
2017-02-10T09:41:42.674Z,1016.08
2017-02-10T09:42:48.765Z,1016.12
2017-02-10T09:43:54.875Z,1016.1
2017-02-10T09:45:00.964Z,1016.05
2017-02-10T09:46:07.050Z,1016.06
2017-02-10T09:47:13.142Z,1016.05
2017-02-10T09:48:19.232Z,1015.98
2017-02-10T09:49:25.323Z,1015.92
2017-02-10T09:50:31.427Z,1015.98
2017-02-10T09:51:36.558Z,1015.95
2017-02-10T09:52:39.710Z,1015.98
2017-02-10T09:53:45.821Z,1016.02
2017-02-10T09:54:49.971Z,1016
2017-02-10T09:55:54.116Z,1016.01
2017-02-10T09:56:59.298Z,1016.02
2017-02-10T09:58:05.382Z,1015.98
2017-02-10T09:59:11.475Z,1015.94
2017-02-10T10:00:16.594Z,1015.98
2017-02-10T10:01:21.732Z,1016
2017-02-10T10:02:25.895Z,1016.03
2017-02-10T10:03:30.992Z,1015.97
2017-02-10T10:04:35.126Z,1016.01
2017-02-10T10:05:41.218Z,1015.98
2017-02-10T10:06:46.307Z,1015.95
2017-02-10T10:07:52.397Z,1015.95
2017-02-10T10:08:56.555Z,1015.95
2017-02-10T10:10:01.742Z,1015.91
2017-02-10T10:11:07.834Z,1015.92
2017-02-10T10:12:13.930Z,1015.93
2017-02-10T10:13:18.056Z,1015.86
2017-02-10T10:14:24.143Z,1015.95
2017-02-10T10:15:30.246Z,1015.92
2017-02-10T10:16:35.369Z,1015.94
2017-02-10T10:17:41.450Z,1015.93
2017-02-10T10:18:45.579Z,1015.94
2017-02-10T10:19:51.679Z,1015.97
2017-02-10T10:20:57.775Z,1016.01
2017-02-10T10:22:03.861Z,1016
2017-02-10T10:23:08.986Z,1015.93
2017-02-10T10:24:13.210Z,1015.9
2017-02-10T10:25:18.324Z,1015.91
2017-02-10T10:26:24.412Z,1015.9
2017-02-10T10:27:30.566Z,1015.9
2017-02-10T10:28:35.685Z,1015.89
2017-02-10T10:29:41.787Z,1015.92
2017-02-10T10:30:44.931Z,1015.94
2017-02-10T10:31:51.021Z,1015.91
2017-02-10T10:32:56.196Z,1015.83
2017-02-10T10:34:02.304Z,1015.92
2017-02-10T10:35:08.400Z,1015.92
2017-02-10T10:36:13.517Z,1015.95
2017-02-10T10:37:18.654Z,1015.92
2017-02-10T10:38:22.802Z,1016
2017-02-10T10:39:27.894Z,1015.93
2017-02-10T10:40:33.992Z,1015.95
2017-02-10T10:41:39.105Z,1015.96
2017-02-10T10:42:45.201Z,1016
2017-02-10T10:43:49.324Z,1015.96
2017-02-10T10:44:54.455Z,1015.99
2017-02-10T10:45:59.829Z,1015.98
2017-02-10T10:47:04.946Z,1015.96
2017-02-10T10:48:10.083Z,1015.98
2017-02-10T10:49:16.157Z,1015.92
2017-02-10T10:50:21.286Z,1015.96
2017-02-10T10:51:25.415Z,1016.09
2017-02-10T10:52:29.606Z,1015.99
2017-02-10T10:53:35.694Z,1015.95
2017-02-10T10:54:40.810Z,1015.97
2017-02-10T10:55:46.949Z,1016.03
2017-02-10T10:56:51.090Z,1015.96
2017-02-10T10:57:57.175Z,1015.94
2017-02-10T10:59:03.261Z,1016
2017-02-10T11:00:09.379Z,1015.88
2017-02-10T11:01:15.457Z,1015.92
2017-02-10T11:02:18.638Z,1015.96
2017-02-10T11:03:23.776Z,1015.93
2017-02-10T11:04:27.897Z,1015.92
2017-02-10T11:05:32.051Z,1015.96
2017-02-10T11:06:37.184Z,1015.93
2017-02-10T11:07:42.314Z,1015.88
2017-02-10T11:08:46.468Z,1015.8
2017-02-10T11:09:49.627Z,1015.84
2017-02-10T11:10:55.717Z,1015.83
2017-02-10T11:12:01.802Z,1015.83
2017-02-10T11:13:05.959Z,1015.84
2017-02-10T11:14:12.061Z,1015.94
2017-02-10T11:15:17.151Z,1015.82
2017-02-10T11:16:20.303Z,1015.85
2017-02-10T11:17:25.431Z,1015.81
2017-02-10T11:18:30.545Z,1015.73
2017-02-10T11:19:32.744Z,1015.74
2017-02-10T11:20:38.839Z,1015.73
2017-02-10T11:21:43.978Z,1015.79
2017-02-10T11:22:50.068Z,1015.85
2017-02-10T11:23:54.193Z,1015.73
2017-02-10T11:24:59.290Z,1015.76
2017-02-10T11:26:04.447Z,1015.72
2017-02-10T11:27:09.549Z,1015.67
2017-02-10T11:28:15.651Z,1015.64
2017-02-10T11:29:20.844Z,1015.67
2017-02-10T11:30:26.941Z,1015.63
2017-02-10T11:31:32.066Z,1015.63
2017-02-10T11:32:38.159Z,1015.63
2017-02-10T11:33:44.258Z,1015.62
2017-02-10T11:34:50.348Z,1015.61
2017-02-10T11:35:55.450Z,1015.6
2017-02-10T11:37:01.533Z,1015.62
2017-02-10T11:38:07.629Z,1015.6
2017-02-10T11:39:10.792Z,1015.59
2017-02-10T11:40:16.887Z,1015.64
2017-02-10T11:41:22.973Z,1015.6
2017-02-10T11:42:28.114Z,1015.65
2017-02-10T11:43:32.276Z,1015.63
2017-02-10T11:44:38.357Z,1015.58
2017-02-10T11:45:42.513Z,1015.64
2017-02-10T11:46:48.622Z,1015.59
2017-02-10T11:47:53.739Z,1015.59
2017-02-10T11:48:59.869Z,1015.64
2017-02-10T11:50:04.970Z,1015.59
2017-02-10T11:51:10.098Z,1015.55
2017-02-10T11:52:16.183Z,1015.51
2017-02-10T11:53:20.342Z,1015.51
2017-02-10T11:54:25.476Z,1015.54
2017-02-10T11:55:30.586Z,1015.55
2017-02-10T11:56:36.719Z,1015.49
2017-02-10T11:57:42.811Z,1015.47
2017-02-10T11:58:48.898Z,1015.48
2017-02-10T11:59:55.000Z,1015.51
2017-02-10T12:00:59.149Z,1015.54
2017-02-10T12:02:04.248Z,1015.52
2017-02-10T12:03:10.341Z,1015.52
2017-02-10T12:04:15.473Z,1015.47
2017-02-10T12:05:21.610Z,1015.41
2017-02-10T12:06:27.751Z,1015.4
2017-02-10T12:07:33.817Z,1015.4
2017-02-10T12:08:39.924Z,1015.43
2017-02-10T12:09:45.072Z,1015.58
2017-02-10T12:10:51.173Z,1015.39
2017-02-10T12:11:56.308Z,1015.38
2017-02-10T12:13:02.412Z,1015.32
2017-02-10T12:14:06.569Z,1015.31
2017-02-10T12:15:12.665Z,1015.35
2017-02-10T12:16:17.828Z,1015.37
2017-02-10T12:17:22.919Z,1015.36
2017-02-10T12:18:29.007Z,1015.37
2017-02-10T12:19:34.155Z,1015.43
2017-02-10T12:20:38.299Z,1015.42
2017-02-10T12:21:42.433Z,1015.39
2017-02-10T12:22:48.529Z,1015.38
2017-02-10T12:23:54.597Z,1015.36
2017-02-10T12:25:00.681Z,1015.35
2017-02-10T12:26:05.796Z,1015.36
2017-02-10T12:27:11.881Z,1015.36
2017-02-10T12:28:17.981Z,1015.46
2017-02-10T12:29:23.106Z,1015.39
2017-02-10T12:30:29.198Z,1015.36
2017-02-10T12:31:35.298Z,1015.42
2017-02-10T12:32:39.453Z,1015.38
2017-02-10T12:33:45.536Z,1015.33
2017-02-10T12:34:51.623Z,1015.34
2017-02-10T12:35:57.712Z,1015.33
2017-02-10T12:37:02.833Z,1015.35
2017-02-10T12:38:08.929Z,1015.35
2017-02-10T12:39:15.043Z,1015.3
2017-02-10T12:40:20.151Z,1015.37
2017-02-10T12:41:25.283Z,1015.38
2017-02-10T12:42:30.409Z,1015.32
2017-02-10T12:43:36.499Z,1015.39
2017-02-10T12:44:41.623Z,1015.39
2017-02-10T12:45:47.739Z,1015.37
2017-02-10T12:46:53.806Z,1015.35
2017-02-10T12:47:59.955Z,1015.37
2017-02-10T12:49:05.055Z,1015.4
2017-02-10T12:50:09.187Z,1015.4
2017-02-10T12:51:14.313Z,1015.56
2017-02-10T12:52:20.413Z,1015.51
2017-02-10T12:53:26.508Z,1015.45
2017-02-10T12:54:31.614Z,1015.43
2017-02-10T12:55:34.800Z,1015.37
2017-02-10T12:56:39.933Z,1015.43
2017-02-10T12:57:45.059Z,1015.44
2017-02-10T12:58:49.208Z,1015.36
2017-02-10T12:59:54.328Z,1015.4
2017-02-10T13:00:57.517Z,1015.34
2017-02-10T13:02:03.616Z,1015.38
2017-02-10T13:03:08.743Z,1015.33
2017-02-10T13:04:14.850Z,1015.28
2017-02-10T13:05:20.002Z,1015.33
2017-02-10T13:06:26.071Z,1015.3
2017-02-10T13:07:31.190Z,1015.31
2017-02-10T13:08:36.287Z,1015.28
2017-02-10T13:09:40.412Z,1015.28
2017-02-10T13:10:46.531Z,1015.24
2017-02-10T13:11:51.644Z,1015.31
2017-02-10T13:12:57.721Z,1015.22
2017-02-10T13:14:03.862Z,1015.25